sensor_id;sensor_type;location;lat;lon;timestamp;pressure;altitude;pressure_sealevel;temperature;humidity
42691;BME280;28306;55.744;37.578;2023-02-16T00:00:43;100716.28;;;25.84;16.04
42691;BME280;28306;55.744;37.578;2023-02-16T00:03:13;100708.09;;;25.84;16.11
42691;BME280;28306;55.744;37.578;2023-02-16T00:05:39;100703.69;;;25.83;15.96
42691;BME280;28306;55.744;37.578;2023-02-16T00:08:04;100710.25;;;25.82;16.06
42691;BME280;28306;55.744;37.578;2023-02-16T00:10:34;100712.97;;;25.82;16.12
42691;BME280;28306;55.744;37.578;2023-02-16T00:13:00;100704.53;;;25.83;15.91
42691;BME280;28306;55.744;37.578;2023-02-16T00:15:45;100705.38;;;25.84;16.15
42691;BME280;28306;55.744;37.578;2023-02-16T00:18:17;100704.31;;;25.85;15.86
42691;BME280;28306;55.744;37.578;2023-02-16T00:20:43;100705.13;;;25.85;16.08
42691;BME280;28306;55.744;37.578;2023-02-16T00:23:09;100703.22;;;25.86;15.82
42691;BME280;28306;55.744;37.578;2023-02-16T00:25:34;100697.75;;;25.86;16.12
42691;BME280;28306;55.744;37.578;2023-02-16T00:28:01;100695.28;;;25.84;15.82
42691;BME280;28306;55.744;37.578;2023-02-16T00:30:28;100706.78;;;25.86;16.04
42691;BME280;28306;55.744;37.578;2023-02-16T00:32:54;100708.09;;;25.84;16.06
42691;BME280;28306;55.744;37.578;2023-02-16T00:35:20;100707.28;;;25.83;16.17
42691;BME280;28306;55.744;37.578;2023-02-16T00:37:46;100697.44;;;25.82;15.81
42691;BME280;28306;55.744;37.578;2023-02-16T00:40:12;100700.97;;;25.83;15.91
42691;BME280;28306;55.744;37.578;2023-02-16T00:42:38;100700.41;;;25.81;16.06
42691;BME280;28306;55.744;37.578;2023-02-16T00:45:11;100700.97;;;25.83;15.82
42691;BME280;28306;55.744;37.578;2023-02-16T00:47:39;100695.53;;;25.83;15.91
42691;BME280;28306;55.744;37.578;2023-02-16T00:50:06;100690.91;;;25.83;16.00
42691;BME280;28306;55.744;37.578;2023-02-16T00:52:38;100690.06;;;25.83;16.00
42691;BME280;28306;55.744;37.578;2023-02-16T00:55:08;100690.91;;;25.83;16.00
42691;BME280;28306;55.744;37.578;2023-02-16T00:57:44;100689.81;;;25.84;15.89
42691;BME280;28306;55.744;37.578;2023-02-16T01:00:30;100695.53;;;25.83;16.18
42691;BME280;28306;55.744;37.578;2023-02-16T01:02:56;100687.84;;;25.80;15.86
42691;BME280;28306;55.744;37.578;2023-02-16T01:05:23;100697.94;;;25.79;16.03
42691;BME280;28306;55.744;37.578;2023-02-16T01:07:49;100692.22;;;25.81;15.93
42691;BME280;28306;55.744;37.578;2023-02-16T01:10:34;100691.16;;;25.82;15.85
42691;BME280;28306;55.744;37.578;2023-02-16T01:13:18;100694.72;;;25.82;15.85
42691;BME280;28306;55.744;37.578;2023-02-16T01:15:44;100701.81;;;25.83;16.08
42691;BME280;28306;55.744;37.578;2023-02-16T01:18:12;100700.16;;;25.82;15.91
42691;BME280;28306;55.744;37.578;2023-02-16T01:20:37;100692.78;;;25.83;15.78
42691;BME280;28306;55.744;37.578;2023-02-16T01:23:05;100697.19;;;25.84;15.89
42691;BME280;28306;55.744;37.578;2023-02-16T01:25:31;100698.84;;;25.85;16.00
42691;BME280;28306;55.744;37.578;2023-02-16T01:27:56;100689.81;;;25.84;15.92
42691;BME280;28306;55.744;37.578;2023-02-16T01:30:22;100693.41;;;25.85;15.96
42691;BME280;28306;55.744;37.578;2023-02-16T01:32:48;100703.22;;;25.86;15.82
42691;BME280;28306;55.744;37.578;2023-02-16T01:35:21;100687.94;;;25.85;15.88
42691;BME280;28306;55.744;37.578;2023-02-16T01:37:47;100685.22;;;25.85;15.89
42691;BME280;28306;55.744;37.578;2023-02-16T01:42:51;100697.19;;;25.84;15.91
42691;BME280;28306;55.744;37.578;2023-02-16T01:45:25;100696.38;;;25.83;15.99
42691;BME280;28306;55.744;37.578;2023-02-16T01:47:53;100699.91;;;25.84;15.95
42691;BME280;28306;55.744;37.578;2023-02-16T01:50:24;100702.38;;;25.85;15.99
42691;BME280;28306;55.744;37.578;2023-02-16T01:52:59;100691.50;;;25.85;15.72
42691;BME280;28306;55.744;37.578;2023-02-16T01:55:27;100711.88;;;25.83;15.96
42691;BME280;28306;55.744;37.578;2023-02-16T01:58:03;100706.44;;;25.83;15.85
42691;BME280;28306;55.744;37.578;2023-02-16T02:01:15;100699.09;;;25.83;15.94
42691;BME280;28306;55.744;37.578;2023-02-16T02:03:26;100703.69;;;25.83;15.93
42691;BME280;28306;55.744;37.578;2023-02-16T02:06:11;100703.94;;;25.81;15.77
42691;BME280;28306;55.744;37.578;2023-02-16T02:08:49;100706.44;;;25.83;15.94
42691;BME280;28306;55.744;37.578;2023-02-16T02:11:24;100712.97;;;25.82;16.07
42691;BME280;28306;55.744;37.578;2023-02-16T02:16:29;100699.91;;;25.84;15.94
42691;BME280;28306;55.744;37.578;2023-02-16T02:18:55;100701.56;;;25.85;15.86
42691;BME280;28306;55.744;37.578;2023-02-16T02:29:39;100713.78;;;25.82;15.99
42691;BME280;28306;55.744;37.578;2023-02-16T02:32:11;100717.34;;;25.83;15.87
42691;BME280;28306;55.744;37.578;2023-02-16T02:34:59;100712.13;;;25.81;15.90
42691;BME280;28306;55.744;37.578;2023-02-16T02:40:07;100711.88;;;25.83;15.89
42691;BME280;28306;55.744;37.578;2023-02-16T02:45:24;100709.16;;;25.83;15.81
42691;BME280;28306;55.744;37.578;2023-02-16T02:47:52;100707.28;;;25.83;15.76
42691;BME280;28306;55.744;37.578;2023-02-16T02:53:12;100711.31;;;25.81;15.72
42691;BME280;28306;55.744;37.578;2023-02-16T02:55:41;100714.03;;;25.81;15.88
42691;BME280;28306;55.744;37.578;2023-02-16T02:58:28;100719.25;;;25.82;15.91
42691;BME280;28306;55.744;37.578;2023-02-16T03:01:14;100712.97;;;25.82;15.85
42691;BME280;28306;55.744;37.578;2023-02-16T03:03:47;100716.50;;;25.82;16.07
42691;BME280;28306;55.744;37.578;2023-02-16T03:06:16;100714.59;;;25.83;15.95
42691;BME280;28306;55.744;37.578;2023-02-16T03:08:43;100703.69;;;25.83;15.78
42691;BME280;28306;55.744;37.578;2023-02-16T03:11:11;100697.19;;;25.84;15.78
42691;BME280;28306;55.744;37.578;2023-02-16T03:13:59;100702.06;;;25.82;15.96
42691;BME280;28306;55.744;37.578;2023-02-16T03:16:29;100699.34;;;25.82;15.76
42691;BME280;28306;55.744;37.578;2023-02-16T03:18:55;100700.66;;;25.79;15.74
42691;BME280;28306;55.744;37.578;2023-02-16T03:21:41;100704.19;;;25.80;15.83
42691;BME280;28306;55.744;37.578;2023-02-16T03:24:26;100696.00;;;25.80;15.88
42691;BME280;28306;55.744;37.578;2023-02-16T03:27:11;100692.22;;;25.81;16.11
42691;BME280;28306;55.744;37.578;2023-02-16T03:29:56;100697.44;;;25.82;15.99
42691;BME280;28306;55.744;37.578;2023-02-16T03:32:22;100694.72;;;25.82;16.11
42691;BME280;28306;55.744;37.578;2023-02-16T03:34:47;100693.03;;;25.81;15.72
42691;BME280;28306;55.744;37.578;2023-02-16T03:37:13;100689.50;;;25.81;15.80
42691;BME280;28306;55.744;37.578;2023-02-16T03:39:39;100693.28;;;25.80;15.88
42691;BME280;28306;55.744;37.578;2023-02-16T03:42:23;100697.69;;;25.81;15.90
42691;BME280;28306;55.744;37.578;2023-02-16T03:44:49;100697.94;;;25.79;15.75
42691;BME280;28306;55.744;37.578;2023-02-16T03:47:15;100693.53;;;25.78;15.87
42691;BME280;28306;55.744;37.578;2023-02-16T03:49:40;100696.00;;;25.80;15.92
42691;BME280;28306;55.744;37.578;2023-02-16T03:52:06;100698.75;;;25.80;15.71
42691;BME280;28306;55.744;37.578;2023-02-16T03:54:31;100699.59;;;25.80;15.90
42691;BME280;28306;55.744;37.578;2023-02-16T03:56:56;100697.69;;;25.81;16.09
42691;BME280;28306;55.744;37.578;2023-02-16T03:59:22;100690.31;;;25.81;15.76
42691;BME280;28306;55.744;37.578;2023-02-16T04:01:47;100696.63;;;25.82;15.72
42691;BME280;28306;55.744;37.578;2023-02-16T04:04:13;100695.53;;;25.83;15.74
42691;BME280;28306;55.744;37.578;2023-02-16T04:06:39;100694.72;;;25.82;16.06
42691;BME280;28306;55.744;37.578;2023-02-16T04:09:05;100689.50;;;25.81;15.81
42691;BME280;28306;55.744;37.578;2023-02-16T04:11:30;100687.84;;;25.80;15.96
42691;BME280;28306;55.744;37.578;2023-02-16T04:14:14;100694.13;;;25.80;16.06
42691;BME280;28306;55.744;37.578;2023-02-16T04:16:40;100689.50;;;25.81;15.86
42691;BME280;28306;55.744;37.578;2023-02-16T04:19:05;100692.22;;;25.81;16.03
42691;BME280;28306;55.744;37.578;2023-02-16T04:21:32;100689.50;;;25.81;15.81
42691;BME280;28306;55.744;37.578;2023-02-16T04:23:57;100689.50;;;25.81;15.83
42691;BME280;28306;55.744;37.578;2023-02-16T04:26:23;100682.38;;;25.80;15.71
42691;BME280;28306;55.744;37.578;2023-02-16T04:28:48;100681.31;;;25.81;15.66
42691;BME280;28306;55.744;37.578;2023-02-16T04:31:14;100689.50;;;25.81;15.80
42691;BME280;28306;55.744;37.578;2023-02-16T04:33:39;100684.03;;;25.81;15.77
42691;BME280;28306;55.744;37.578;2023-02-16T04:36:05;100682.97;;;25.82;15.85
42691;BME280;28306;55.744;37.578;2023-02-16T04:38:30;100675.63;;;25.82;15.69
42691;BME280;28306;55.744;37.578;2023-02-16T04:40:56;100672.91;;;25.82;15.80
42691;BME280;28306;55.744;37.578;2023-02-16T04:43:21;100673.13;;;25.81;15.75
42691;BME280;28306;55.744;37.578;2023-02-16T04:45:47;100668.75;;;25.80;15.71
42691;BME280;28306;55.744;37.578;2023-02-16T04:48:12;100673.13;;;25.81;15.93
42691;BME280;28306;55.744;37.578;2023-02-16T04:50:38;100681.31;;;25.81;15.74
42691;BME280;28306;55.744;37.578;2023-02-16T04:53:03;100684.03;;;25.81;16.00
42691;BME280;28306;55.744;37.578;2023-02-16T04:55:29;100677.53;;;25.82;15.86
42691;BME280;28306;55.744;37.578;2023-02-16T04:57:55;100681.31;;;25.81;15.75
42691;BME280;28306;55.744;37.578;2023-02-16T05:00:20;100687.84;;;25.80;15.70
42691;BME280;28306;55.744;37.578;2023-02-16T05:02:46;100685.09;;;25.80;15.81
42691;BME280;28306;55.744;37.578;2023-02-16T05:05:12;100681.31;;;25.81;15.73
42691;BME280;28306;55.744;37.578;2023-02-16T05:07:38;100682.97;;;25.82;15.92
42691;BME280;28306;55.744;37.578;2023-02-16T05:10:03;100685.97;;;25.80;15.97
42691;BME280;28306;55.744;37.578;2023-02-16T05:12:29;100688.94;;;25.79;15.93
42691;BME280;28306;55.744;37.578;2023-02-16T05:15:13;100683.47;;;25.79;15.97
42691;BME280;28306;55.744;37.578;2023-02-16T05:17:38;100688.31;;;25.77;16.09
42691;BME280;28306;55.744;37.578;2023-02-16T05:20:04;100692.97;;;25.76;16.00
42691;BME280;28306;55.744;37.578;2023-02-16T05:22:29;100701.97;;;25.77;15.81
42691;BME280;28306;55.744;37.578;2023-02-16T05:24:58;100697.34;;;25.77;16.04
42691;BME280;28306;55.744;37.578;2023-02-16T05:27:25;100696.50;;;25.77;15.84
42691;BME280;28306;55.744;37.578;2023-02-16T05:29:51;100692.72;;;25.78;15.75
42691;BME280;28306;55.744;37.578;2023-02-16T05:32:16;100696.50;;;25.77;15.77
42691;BME280;28306;55.744;37.578;2023-02-16T05:34:42;100705.53;;;25.77;15.97
42691;BME280;28306;55.744;37.578;2023-02-16T05:37:09;100696.75;;;25.75;15.78
42691;BME280;28306;55.744;37.578;2023-02-16T05:39:34;100693.22;;;25.75;15.98
42691;BME280;28306;55.744;37.578;2023-02-16T05:42:00;100687.75;;;25.75;16.00
42691;BME280;28306;55.744;37.578;2023-02-16T05:44:25;100699.47;;;25.75;15.82
42691;BME280;28306;55.744;37.578;2023-02-16T05:46:51;100694.88;;;25.76;16.06
42691;BME280;28306;55.744;37.578;2023-02-16T05:49:16;100698.66;;;25.75;15.83
42691;BME280;28306;55.744;37.578;2023-02-16T05:51:42;100693.22;;;25.75;15.93
42691;BME280;28306;55.744;37.578;2023-02-16T05:54:08;100693.22;;;25.75;15.71
42691;BME280;28306;55.744;37.578;2023-02-16T05:56:35;100689.66;;;25.74;15.75
42691;BME280;28306;55.744;37.578;2023-02-16T05:59:00;100690.47;;;25.75;15.77
42691;BME280;28306;55.744;37.578;2023-02-16T06:01:26;100692.38;;;25.74;15.82
42691;BME280;28306;55.744;37.578;2023-02-16T06:03:52;100695.94;;;25.75;15.81
42691;BME280;28306;55.744;37.578;2023-02-16T06:06:17;100698.66;;;25.75;15.68
42691;BME280;28306;55.744;37.578;2023-02-16T06:08:43;100694.25;;;25.73;15.93
42691;BME280;28306;55.744;37.578;2023-02-16T06:11:09;100693.44;;;25.73;15.89
42691;BME280;28306;55.744;37.578;2023-02-16T06:13:54;100687.19;;;25.72;15.91
42691;BME280;28306;55.744;37.578;2023-02-16T06:16:24;100682.31;;;25.75;15.89
42691;BME280;28306;55.744;37.578;2023-02-16T06:18:50;100674.94;;;25.75;16.03
42691;BME280;28306;55.744;37.578;2023-02-16T06:21:15;100690.22;;;25.76;16.02
42691;BME280;28306;55.744;37.578;2023-02-16T06:23:41;100683.72;;;25.77;15.64
42691;BME280;28306;55.744;37.578;2023-02-16T06:26:06;100687.25;;;25.78;15.95
42691;BME280;28306;55.744;37.578;2023-02-16T06:28:31;100691.41;;;25.80;15.59
42691;BME280;28306;55.744;37.578;2023-02-16T06:30:57;100681.31;;;25.81;15.82
42691;BME280;28306;55.744;37.578;2023-02-16T06:33:22;100685.97;;;25.80;15.94
42691;BME280;28306;55.744;37.578;2023-02-16T06:35:48;100687.84;;;25.80;15.75
42691;BME280;28306;55.744;37.578;2023-02-16T06:38:13;100682.38;;;25.80;15.73
42691;BME280;28306;55.744;37.578;2023-02-16T06:40:39;100675.06;;;25.80;15.73
42691;BME280;28306;55.744;37.578;2023-02-16T06:43:06;100678.59;;;25.81;15.82
42691;BME280;28306;55.744;37.578;2023-02-16T06:45:32;100693.03;;;25.81;15.70
42691;BME280;28306;55.744;37.578;2023-02-16T06:47:57;100682.75;;;25.83;15.70
42691;BME280;28306;55.744;37.578;2023-02-16T06:50:23;100687.34;;;25.83;15.68
42691;BME280;28306;55.744;37.578;2023-02-16T06:52:48;100681.88;;;25.83;15.60
42691;BME280;28306;55.744;37.578;2023-02-16T06:55:14;100679.16;;;25.83;15.73
42691;BME280;28306;55.744;37.578;2023-02-16T06:57:39;100685.47;;;25.83;15.86
42691;BME280;28306;55.744;37.578;2023-02-16T07:00:05;100683.56;;;25.84;15.59
42691;BME280;28306;55.744;37.578;2023-02-16T07:02:31;100678.09;;;25.84;15.80
42691;BME280;28306;55.744;37.578;2023-02-16T07:04:57;100683.56;;;25.84;15.56
42691;BME280;28306;55.744;37.578;2023-02-16T07:07:22;100686.03;;;25.85;15.76
42691;BME280;28306;55.744;37.578;2023-02-16T07:09:48;100677.84;;;25.85;15.68
42691;BME280;28306;55.744;37.578;2023-02-16T07:12:14;100681.41;;;25.86;15.58
42691;BME280;28306;55.744;37.578;2023-02-16T07:14:39;100678.66;;;25.86;15.56
42691;BME280;28306;55.744;37.578;2023-02-16T07:17:05;100681.41;;;25.86;15.69
42691;BME280;28306;55.744;37.578;2023-02-16T07:19:30;100672.16;;;25.87;15.73
42691;BME280;28306;55.744;37.578;2023-02-16T07:21:59;100675.94;;;25.86;15.68
42691;BME280;28306;55.744;37.578;2023-02-16T07:24:25;100675.69;;;25.87;15.81
42691;BME280;28306;55.744;37.578;2023-02-16T07:26:50;100679.28;;;25.88;15.62
42691;BME280;28306;55.744;37.578;2023-02-16T07:29:16;100674.63;;;25.88;15.74
42691;BME280;28306;55.744;37.578;2023-02-16T07:31:41;100667.28;;;25.89;15.60
42691;BME280;28306;55.744;37.578;2023-02-16T07:34:07;100668.94;;;25.90;15.60
42691;BME280;28306;55.744;37.578;2023-02-16T07:36:33;100674.38;;;25.90;15.74
42691;BME280;28306;55.744;37.578;2023-02-16T07:38:58;100676.06;;;25.91;15.74
42691;BME280;28306;55.744;37.578;2023-02-16T07:41:24;100671.41;;;25.92;15.77
42691;BME280;28306;55.744;37.578;2023-02-16T07:43:49;100665.97;;;25.92;15.59
42691;BME280;28306;55.744;37.578;2023-02-16T07:46:15;100676.63;;;25.93;15.53
42691;BME280;28306;55.744;37.578;2023-02-16T07:48:40;100678.53;;;25.93;15.57
42691;BME280;28306;55.744;37.578;2023-02-16T07:51:06;100665.72;;;25.93;15.60
42691;BME280;28306;55.744;37.578;2023-02-16T07:53:31;100665.97;;;25.92;15.47
42691;BME280;28306;55.744;37.578;2023-02-16T07:55:57;100673.31;;;25.91;15.64
42691;BME280;28306;55.744;37.578;2023-02-16T07:58:22;100668.38;;;25.88;15.66
42691;BME280;28306;55.744;37.578;2023-02-16T08:01:08;100670.25;;;25.87;15.69
42691;BME280;28306;55.744;37.578;2023-02-16T08:03:33;100672.41;;;25.85;15.59
42691;BME280;28306;55.744;37.578;2023-02-16T08:06:02;100667.19;;;25.84;15.67
42691;BME280;28306;55.744;37.578;2023-02-16T08:08:28;100665.88;;;25.86;15.73
42691;BME280;28306;55.744;37.578;2023-02-16T08:10:53;100665.66;;;25.88;15.64
42691;BME280;28306;55.744;37.578;2023-02-16T08:13:19;100671.91;;;25.88;15.49
42691;BME280;28306;55.744;37.578;2023-02-16T08:15:45;100662.91;;;25.88;15.72
42691;BME280;28306;55.744;37.578;2023-02-16T08:18:10;100656.38;;;25.89;15.46
42691;BME280;28306;55.744;37.578;2023-02-16T08:20:36;100669.19;;;25.88;15.61
42691;BME280;28306;55.744;37.578;2023-02-16T08:23:01;100665.66;;;25.88;15.33
42691;BME280;28306;55.744;37.578;2023-02-16T08:25:27;100667.53;;;25.87;15.58
42691;BME280;28306;55.744;37.578;2023-02-16T08:27:52;100668.38;;;25.88;15.78
42691;BME280;28306;55.744;37.578;2023-02-16T08:30:18;100670.00;;;25.89;15.62
42691;BME280;28306;55.744;37.578;2023-02-16T08:32:44;100667.28;;;25.89;15.55
42691;BME280;28306;55.744;37.578;2023-02-16T08:35:10;100669.75;;;25.90;15.64
42691;BME280;28306;55.744;37.578;2023-02-16T08:37:36;100671.41;;;25.92;15.85
42691;BME280;28306;55.744;37.578;2023-02-16T08:40:02;100673.56;;;25.89;15.90
42691;BME280;28306;55.744;37.578;2023-02-16T08:42:29;100668.13;;;25.89;15.84
42691;BME280;28306;55.744;37.578;2023-02-16T08:44:54;100667.03;;;25.90;15.86
42691;BME280;28306;55.744;37.578;2023-02-16T08:47:19;100665.16;;;25.91;15.81
42691;BME280;28306;55.744;37.578;2023-02-16T08:49:45;100667.88;;;25.91;15.88
42691;BME280;28306;55.744;37.578;2023-02-16T08:52:11;100655.06;;;25.92;15.77
42691;BME280;28306;55.744;37.578;2023-02-16T08:54:36;100662.41;;;25.91;15.93
42691;BME280;28306;55.744;37.578;2023-02-16T08:57:03;100663.25;;;25.92;15.86
42691;BME280;28306;55.744;37.578;2023-02-16T08:59:29;100664.66;;;25.94;15.87
42691;BME280;28306;55.744;37.578;2023-02-16T09:01:57;100661.69;;;25.96;15.96
42691;BME280;28306;55.744;37.578;2023-02-16T09:04:23;100652.66;;;25.95;15.85
42691;BME280;28306;55.744;37.578;2023-02-16T09:06:49;100646.72;;;25.98;15.95
42691;BME280;28306;55.744;37.578;2023-02-16T09:09:15;100651.69;;;26.01;15.79
42691;BME280;28306;55.744;37.578;2023-02-16T09:11:41;100650.38;;;26.04;15.89
42691;BME280;28306;55.744;37.578;2023-02-16T09:14:07;100647.41;;;26.05;16.00
42691;BME280;28306;55.744;37.578;2023-02-16T09:16:35;100648.47;;;26.04;15.97
42691;BME280;28306;55.744;37.578;2023-02-16T09:19:03;100649.03;;;26.06;15.94
42691;BME280;28306;55.744;37.578;2023-02-16T09:21:29;100640.84;;;26.06;15.98
42691;BME280;28306;55.744;37.578;2023-02-16T09:24:01;100645.50;;;26.06;15.94
42691;BME280;28306;55.744;37.578;2023-02-16T09:26:29;100647.97;;;26.07;16.11
42691;BME280;28306;55.744;37.578;2023-02-16T09:28:55;100641.69;;;26.07;16.02
42691;BME280;28306;55.744;37.578;2023-02-16T09:31:22;100646.31;;;26.06;16.01
42691;BME280;28306;55.744;37.578;2023-02-16T09:33:55;100646.66;;;26.10;15.81
42691;BME280;28306;55.744;37.578;2023-02-16T09:36:21;100635.50;;;26.12;15.97
42691;BME280;28306;55.744;37.578;2023-02-16T09:38:47;100631.44;;;26.14;15.79
42691;BME280;28306;55.744;37.578;2023-02-16T09:43:42;100637.72;;;26.15;15.99
42691;BME280;28306;55.744;37.578;2023-02-16T09:46:10;100637.97;;;26.13;15.82
42691;BME280;28306;55.744;37.578;2023-02-16T09:48:37;100637.13;;;26.13;15.96
42691;BME280;28306;55.744;37.578;2023-02-16T09:51:07;100631.69;;;26.13;16.16
42691;BME280;28306;55.744;37.578;2023-02-16T09:53:37;100630.03;;;26.12;16.12
42691;BME280;28306;55.744;37.578;2023-02-16T09:56:07;100626.47;;;26.11;16.17
42691;BME280;28306;55.744;37.578;2023-02-16T10:01:40;100632.78;;;26.12;15.94
42691;BME280;28306;55.744;37.578;2023-02-16T10:04:26;100644.50;;;26.12;15.77
42691;BME280;28306;55.744;37.578;2023-02-16T10:06:58;100639.03;;;26.12;15.84
42691;BME280;28306;55.744;37.578;2023-02-16T10:09:28;100631.09;;;26.11;15.87
42691;BME280;28306;55.744;37.578;2023-02-16T10:11:56;100641.44;;;26.08;15.95
42691;BME280;28306;55.744;37.578;2023-02-16T10:19:34;100624.75;;;26.05;15.87
42691;BME280;28306;55.744;37.578;2023-02-16T10:22:03;100623.94;;;26.04;15.94
42691;BME280;28306;55.744;37.578;2023-02-16T10:24:32;100619.53;;;26.03;16.07
42691;BME280;28306;55.744;37.578;2023-02-16T10:27:11;100625.00;;;26.03;16.03
42691;BME280;28306;55.744;37.578;2023-02-16T10:29:38;100619.28;;;26.05;16.05
42691;BME280;28306;55.744;37.578;2023-02-16T10:34:49;100622.84;;;26.05;15.96
42691;BME280;28306;55.744;37.578;2023-02-16T10:45:26;100628.31;;;26.05;15.92
42691;BME280;28306;55.744;37.578;2023-02-16T10:47:54;100622.00;;;26.05;15.89
42691;BME280;28306;55.744;37.578;2023-02-16T10:50:24;100621.75;;;26.06;16.00
42691;BME280;28306;55.744;37.578;2023-02-16T10:52:51;100614.44;;;26.07;16.10
42691;BME280;28306;55.744;37.578;2023-02-16T10:55:19;100616.56;;;26.05;15.78
42691;BME280;28306;55.744;37.578;2023-02-16T10:57:49;100615.75;;;26.04;15.79
42691;BME280;28306;55.744;37.578;2023-02-16T11:00:17;100609.47;;;26.04;15.89
42691;BME280;28306;55.744;37.578;2023-02-16T11:02:47;100614.94;;;26.04;15.91
42691;BME280;28306;55.744;37.578;2023-02-16T11:07:51;100614.94;;;26.04;15.69
42691;BME280;28306;55.744;37.578;2023-02-16T11:10:18;100610.28;;;26.04;15.84
42691;BME280;28306;55.744;37.578;2023-02-16T11:12:44;100609.72;;;26.02;15.56
42691;BME280;28306;55.744;37.578;2023-02-16T11:17:51;100609.97;;;26.01;15.49
42691;BME280;28306;55.744;37.578;2023-02-16T11:20:52;100602.84;;;26.00;15.67
42691;BME280;28306;55.744;37.578;2023-02-16T11:25:37;100607.50;;;25.99;15.40
42691;BME280;28306;55.744;37.578;2023-02-16T11:28:03;100606.69;;;25.99;15.52
42691;BME280;28306;55.744;37.578;2023-02-16T11:30:33;100601.22;;;25.99;15.53
42691;BME280;28306;55.744;37.578;2023-02-16T11:33:32;100607.50;;;25.99;15.40
42691;BME280;28306;55.744;37.578;2023-02-16T11:35:54;100598.50;;;25.99;15.46
42691;BME280;28306;55.744;37.578;2023-02-16T11:38:30;100597.66;;;25.98;15.67
42691;BME280;28306;55.744;37.578;2023-02-16T11:40:57;100596.84;;;25.98;15.54
42691;BME280;28306;55.744;37.578;2023-02-16T11:43:25;100598.75;;;25.97;15.75
42691;BME280;28306;55.744;37.578;2023-02-16T11:45:58;100594.13;;;25.98;15.72
42691;BME280;28306;55.744;37.578;2023-02-16T11:48:25;100598.75;;;25.97;15.97
42691;BME280;28306;55.744;37.578;2023-02-16T11:53:25;100594.31;;;25.96;16.11
42691;BME280;28306;55.744;37.578;2023-02-16T11:55:51;100592.41;;;25.97;16.05
42691;BME280;28306;55.744;37.578;2023-02-16T11:58:33;100597.88;;;25.97;15.93
42691;BME280;28306;55.744;37.578;2023-02-16T12:05:56;100596.59;;;25.99;16.18
42691;BME280;28306;55.744;37.578;2023-02-16T12:08:34;100594.13;;;25.98;16.09
42691;BME280;28306;55.744;37.578;2023-02-16T12:11:09;100594.31;;;25.96;15.90
42691;BME280;28306;55.744;37.578;2023-02-16T12:21:49;100589.94;;;25.95;16.29
42691;BME280;28306;55.744;37.578;2023-02-16T12:24:26;100589.94;;;25.95;16.17
42691;BME280;28306;55.744;37.578;2023-02-16T12:27:03;100591.59;;;25.96;16.36
42691;BME280;28306;55.744;37.578;2023-02-16T12:32:07;100602.28;;;25.98;16.43
42691;BME280;28306;55.744;37.578;2023-02-16T12:45:18;100605.22;;;25.96;16.31
42691;BME280;28306;55.744;37.578;2023-02-16T12:47:54;100605.22;;;25.96;16.21
42691;BME280;28306;55.744;37.578;2023-02-16T12:50:25;100613.41;;;25.96;16.35
42691;BME280;28306;55.744;37.578;2023-02-16T12:58:28;100610.69;;;25.96;16.48
42691;BME280;28306;55.744;37.578;2023-02-16T13:00:56;100611.75;;;25.95;16.31
42691;BME280;28306;55.744;37.578;2023-02-16T13:11:23;100606.31;;;25.95;16.46
42691;BME280;28306;55.744;37.578;2023-02-16T13:13:50;100594.31;;;25.96;16.32
42691;BME280;28306;55.744;37.578;2023-02-16T13:18:47;100602.28;;;25.98;16.29
42691;BME280;28306;55.744;37.578;2023-02-16T13:24:15;100603.31;;;25.97;16.50
42691;BME280;28306;55.744;37.578;2023-02-16T13:26:54;100600.84;;;25.95;16.32
42691;BME280;28306;55.744;37.578;2023-02-16T13:32:12;100606.31;;;25.95;16.42
42691;BME280;28306;55.744;37.578;2023-02-16T13:42:43;100602.19;;;25.93;16.76
42691;BME280;28306;55.744;37.578;2023-02-16T13:45:14;100602.19;;;25.93;16.40
42691;BME280;28306;55.744;37.578;2023-02-16T13:47:42;100602.19;;;25.93;16.49
42691;BME280;28306;55.744;37.578;2023-02-16T13:50:40;100601.34;;;25.92;16.56
42691;BME280;28306;55.744;37.578;2023-02-16T13:53:10;100601.59;;;25.90;16.62
42691;BME280;28306;55.744;37.578;2023-02-16T13:55:40;100605.16;;;25.91;16.62
42691;BME280;28306;55.744;37.578;2023-02-16T14:00:41;100594.25;;;25.91;16.39
42691;BME280;28306;55.744;37.578;2023-02-16T14:05:35;100596.38;;;25.89;16.45
42691;BME280;28306;55.744;37.578;2023-02-16T14:08:08;100597.22;;;25.89;16.45
42691;BME280;28306;55.744;37.578;2023-02-16T14:13:26;100602.09;;;25.87;16.46
42691;BME280;28306;55.744;37.578;2023-02-16T14:15:52;100596.06;;;25.85;16.37
42691;BME280;28306;55.744;37.578;2023-02-16T14:18:29;100609.69;;;25.85;16.55
42691;BME280;28306;55.744;37.578;2023-02-16T14:21:00;100600.94;;;25.83;16.28
42691;BME280;28306;55.744;37.578;2023-02-16T14:23:27;100606.16;;;25.85;16.54
42691;BME280;28306;55.744;37.578;2023-02-16T14:26:01;100611.38;;;25.86;16.33
42691;BME280;28306;55.744;37.578;2023-02-16T14:30:59;100611.13;;;25.88;16.63
42691;BME280;28306;55.744;37.578;2023-02-16T14:36:14;100616.56;;;25.88;16.61
42691;BME280;28306;55.744;37.578;2023-02-16T14:41:22;100611.63;;;25.85;16.53
42691;BME280;28306;55.744;37.578;2023-02-16T14:54:36;100608.88;;;25.85;16.38
42691;BME280;28306;55.744;37.578;2023-02-16T14:57:14;100614.59;;;25.83;16.59
42691;BME280;28306;55.744;37.578;2023-02-16T14:59:51;100609.13;;;25.83;16.34
42691;BME280;28306;55.744;37.578;2023-02-16T15:02:23;100608.53;;;25.81;16.46
42691;BME280;28306;55.744;37.578;2023-02-16T15:04:49;100606.06;;;25.80;16.28